createdAt,value
2022-12-29T00:00:11.134Z,35.8980
2022-12-29T00:01:11.443Z,35.8760
2022-12-29T00:02:13.848Z,35.8570
2022-12-29T00:03:16.422Z,35.8940
2022-12-29T00:04:16.615Z,35.8810
2022-12-29T00:05:19.093Z,35.8520
2022-12-29T00:06:21.519Z,35.8700
2022-12-29T00:07:21.914Z,35.8610
2022-12-29T00:08:24.302Z,35.8650
2022-12-29T00:09:26.778Z,35.8680
2022-12-29T00:10:27.138Z,35.8670
2022-12-29T00:11:29.586Z,35.8300
2022-12-29T00:12:32.068Z,35.8680
2022-12-29T00:13:32.408Z,35.8620
2022-12-29T00:14:34.888Z,35.8240
2022-12-29T00:15:37.448Z,35.8220
2022-12-29T00:16:37.726Z,35.8430
2022-12-29T00:17:40.132Z,35.8330
2022-12-29T00:18:42.588Z,35.8180
2022-12-29T00:19:42.937Z,35.7750
2022-12-29T00:20:45.532Z,35.7860
2022-12-29T00:21:47.895Z,35.7540
2022-12-29T00:22:48.232Z,35.7600
2022-12-29T00:23:50.661Z,35.7570
2022-12-29T00:24:53.088Z,35.7640
2022-12-29T00:25:53.543Z,35.7520
2022-12-29T00:26:55.892Z,35.7410
2022-12-29T00:28:04.801Z,35.7470
2022-12-29T00:28:58.697Z,35.7620
2022-12-29T00:30:01.180Z,35.7850
2022-12-29T00:31:03.780Z,35.7940
2022-12-29T00:32:06.024Z,35.8060
2022-12-29T00:33:06.326Z,35.8060
2022-12-29T00:34:08.806Z,35.7680
2022-12-29T00:35:11.276Z,35.7680
2022-12-29T00:36:11.630Z,35.7530
2022-12-29T00:37:14.054Z,35.7560
2022-12-29T00:38:16.490Z,35.7680
2022-12-29T00:39:16.741Z,35.7590
2022-12-29T00:40:19.220Z,35.7700
2022-12-29T00:41:21.668Z,35.7380
2022-12-29T00:42:24.079Z,35.7380
2022-12-29T00:43:24.386Z,35.7190
2022-12-29T00:44:26.852Z,35.7380
2022-12-29T00:45:29.231Z,35.7420
2022-12-29T00:46:29.713Z,35.7530
2022-12-29T00:47:31.868Z,35.7710
2022-12-29T00:48:34.283Z,35.7890
2022-12-29T00:49:36.637Z,35.7830
2022-12-29T00:50:36.891Z,35.8070
2022-12-29T00:51:39.412Z,35.7770
2022-12-29T00:52:41.691Z,35.7770
2022-12-29T00:53:44.162Z,35.7300
2022-12-29T00:54:46.516Z,35.7360
2022-12-29T00:55:48.902Z,35.7190
2022-12-29T00:56:51.359Z,35.7370
2022-12-29T00:57:51.571Z,35.7190
2022-12-29T00:58:53.978Z,35.7360
2022-12-29T00:59:56.381Z,35.7380
2022-12-29T01:00:58.796Z,35.7670
2022-12-29T01:02:01.284Z,35.7430
2022-12-29T01:03:01.554Z,35.7430
2022-12-29T01:04:04.646Z,35.7200
2022-12-29T01:05:06.039Z,35.7270
2022-12-29T01:06:08.415Z,35.7500
2022-12-29T01:07:08.675Z,35.7440
2022-12-29T01:08:11.035Z,35.7380
2022-12-29T01:09:13.400Z,35.7270
2022-12-29T01:10:15.750Z,35.7480
2022-12-29T01:11:16.032Z,35.6900
2022-12-29T01:12:16.404Z,35.7150
2022-12-29T01:13:18.865Z,35.7360
2022-12-29T01:14:21.358Z,35.7100
2022-12-29T01:15:21.701Z,35.6970
2022-12-29T01:16:24.190Z,35.6910
2022-12-29T01:17:26.708Z,35.6740
2022-12-29T01:18:26.982Z,35.6680
2022-12-29T01:19:29.473Z,35.6680
2022-12-29T01:20:31.947Z,35.6570
2022-12-29T01:21:32.269Z,35.6510
2022-12-29T01:22:34.753Z,35.6780
2022-12-29T01:23:37.229Z,35.6840
2022-12-29T01:24:37.581Z,35.6720
2022-12-29T01:25:40.046Z,35.6680
2022-12-29T01:26:42.521Z,35.6460
2022-12-29T01:27:42.876Z,35.6540
2022-12-29T01:28:45.254Z,35.6540
2022-12-29T01:29:47.666Z,35.6610
2022-12-29T01:30:47.920Z,35.6780
2022-12-29T01:31:50.399Z,35.6290
2022-12-29T01:32:50.690Z,35.6160
2022-12-29T01:33:53.143Z,35.6100
2022-12-29T01:34:53.449Z,35.6040
2022-12-29T01:35:55.942Z,35.5930
2022-12-29T01:36:56.269Z,35.5970
2022-12-29T01:37:58.775Z,35.6250
2022-12-29T01:39:01.248Z,35.6080
2022-12-29T01:40:01.667Z,35.6080
2022-12-29T01:41:04.095Z,35.6000
2022-12-29T01:42:06.596Z,35.6080
2022-12-29T01:43:06.968Z,35.6200
2022-12-29T01:44:09.437Z,35.6000
2022-12-29T01:45:11.901Z,35.5910
2022-12-29T01:46:12.283Z,35.5860
2022-12-29T01:47:14.645Z,35.5940
2022-12-29T01:48:17.231Z,35.5880
2022-12-29T01:49:17.428Z,35.5670
2022-12-29T01:50:19.933Z,35.5540
2022-12-29T01:51:22.357Z,35.5920
2022-12-29T01:52:22.676Z,35.5860
2022-12-29T01:53:25.206Z,35.5810
2022-12-29T01:54:27.666Z,35.5540
2022-12-29T01:55:27.997Z,35.5600
2022-12-29T01:56:30.425Z,35.5510
2022-12-29T01:57:32.843Z,35.5240
2022-12-29T01:58:35.383Z,35.5620
2022-12-29T01:59:35.614Z,35.5570
2022-12-29T02:00:38.170Z,35.5510
2022-12-29T02:01:40.666Z,35.5450
2022-12-29T02:02:41.063Z,35.5690
2022-12-29T02:03:43.354Z,35.5130
2022-12-29T02:04:45.707Z,35.4940
2022-12-29T02:05:45.986Z,35.4950
2022-12-29T02:06:48.450Z,35.4760
2022-12-29T02:07:50.881Z,35.4700
2022-12-29T02:08:53.373Z,35.4810
2022-12-29T02:09:53.650Z,35.4550
2022-12-29T02:10:56.175Z,35.4490
2022-12-29T02:11:58.636Z,35.4530
2022-12-29T02:12:58.987Z,35.4710
2022-12-29T02:14:03.759Z,35.4250
2022-12-29T02:15:03.983Z,35.4420
2022-12-29T02:16:04.355Z,35.4260
2022-12-29T02:17:06.784Z,35.4000
2022-12-29T02:18:09.323Z,35.4250
2022-12-29T02:19:11.877Z,35.4310
2022-12-29T02:20:14.328Z,35.4420
2022-12-29T02:21:14.666Z,35.4250
2022-12-29T02:22:17.133Z,35.4540
2022-12-29T02:23:19.559Z,35.4550
2022-12-29T02:24:19.926Z,35.4410
2022-12-29T02:25:22.378Z,35.4480
2022-12-29T02:26:24.849Z,35.4080
2022-12-29T02:27:25.063Z,35.4420
2022-12-29T02:28:27.553Z,35.4030
2022-12-29T02:29:30.085Z,35.3970
2022-12-29T02:30:30.394Z,35.4370
2022-12-29T02:31:32.947Z,35.4580
2022-12-29T02:32:35.395Z,35.4160
2022-12-29T02:33:35.719Z,35.4410
2022-12-29T02:34:38.238Z,35.4030
2022-12-29T02:35:40.704Z,35.4220
2022-12-29T02:36:40.991Z,35.4030
2022-12-29T02:37:43.426Z,35.4030
2022-12-29T02:38:45.863Z,35.3610
2022-12-29T02:39:48.323Z,35.4200
2022-12-29T02:40:48.598Z,35.4370
2022-12-29T02:41:51.074Z,35.4410
2022-12-29T02:42:53.541Z,35.4220
2022-12-29T02:43:53.801Z,35.4410
2022-12-29T02:44:56.406Z,35.4050
2022-12-29T02:45:58.805Z,35.4160
2022-12-29T02:46:59.121Z,35.4030
2022-12-29T02:48:01.633Z,35.4200
2022-12-29T02:49:04.149Z,35.4430
2022-12-29T02:50:04.680Z,35.4370
2022-12-29T02:51:06.989Z,35.4550
2022-12-29T02:52:09.467Z,35.4370
2022-12-29T02:53:09.817Z,35.4160
2022-12-29T02:54:12.306Z,35.4220
2022-12-29T02:55:14.810Z,35.4150
2022-12-29T02:56:15.142Z,35.4160
2022-12-29T02:57:18.405Z,35.3990
2022-12-29T02:58:20.185Z,35.4150
2022-12-29T02:59:20.496Z,35.4090
2022-12-29T03:00:23.043Z,35.4150
2022-12-29T03:01:23.560Z,35.4350
2022-12-29T03:02:25.993Z,35.4620
2022-12-29T03:03:28.346Z,35.4790
2022-12-29T03:04:28.642Z,35.4670
2022-12-29T03:05:31.130Z,35.4550
2022-12-29T03:06:33.550Z,35.4620
2022-12-29T03:07:33.880Z,35.5030
2022-12-29T03:08:36.366Z,35.4730
2022-12-29T03:09:38.846Z,35.4730
2022-12-29T03:10:39.188Z,35.4290
2022-12-29T03:11:41.613Z,35.4460
2022-12-29T03:12:44.098Z,35.4430
2022-12-29T03:13:44.371Z,35.4290
2022-12-29T03:14:46.816Z,35.4290
2022-12-29T03:15:49.310Z,35.4580
2022-12-29T03:16:51.803Z,35.4670
2022-12-29T03:17:52.025Z,35.4790
2022-12-29T03:18:54.452Z,35.4550
2022-12-29T03:19:56.808Z,35.4550
2022-12-29T03:20:59.409Z,35.4750
2022-12-29T03:21:59.377Z,35.5090
2022-12-29T03:23:01.745Z,35.4860
2022-12-29T03:24:04.130Z,35.4920
2022-12-29T03:25:06.502Z,35.4620
2022-12-29T03:26:06.764Z,35.4800
2022-12-29T03:27:09.098Z,35.4520
2022-12-29T03:28:11.415Z,35.4670
2022-12-29T03:29:13.668Z,35.4550
2022-12-29T03:30:13.942Z,35.4730
2022-12-29T03:31:14.353Z,35.4730
2022-12-29T03:32:16.714Z,35.4550
2022-12-29T03:33:19.172Z,35.4260
2022-12-29T03:34:19.429Z,35.4320
2022-12-29T03:35:21.851Z,35.4370
2022-12-29T03:36:24.375Z,35.4220
2022-12-29T03:37:26.801Z,35.4670
2022-12-29T03:38:27.078Z,35.4730
2022-12-29T03:39:29.502Z,35.4550
2022-12-29T03:40:31.973Z,35.4640
2022-12-29T03:41:32.418Z,35.4800
2022-12-29T03:42:34.775Z,35.4690
2022-12-29T03:43:37.234Z,35.4350
2022-12-29T03:44:37.490Z,35.4290
2022-12-29T03:45:39.962Z,35.4690
2022-12-29T03:46:42.565Z,35.4730
2022-12-29T03:47:42.746Z,35.4430
2022-12-29T03:48:45.203Z,35.4430
2022-12-29T03:49:47.668Z,35.4670
2022-12-29T03:50:47.946Z,35.4750
2022-12-29T03:51:51.996Z,35.4980
2022-12-29T03:52:52.726Z,35.4860
2022-12-29T03:53:55.170Z,35.4370
2022-12-29T03:54:55.449Z,35.4430
2022-12-29T03:55:57.893Z,35.4860
2022-12-29T03:57:00.458Z,35.4620
2022-12-29T03:58:02.769Z,35.4920
2022-12-29T03:59:03.054Z,35.4860
2022-12-29T04:00:05.432Z,35.4920
2022-12-29T04:01:07.879Z,35.4790
2022-12-29T04:02:08.416Z,35.4580
2022-12-29T04:03:10.593Z,35.4730
2022-12-29T04:04:12.937Z,35.4790
2022-12-29T04:05:15.368Z,35.4690
2022-12-29T04:06:15.653Z,35.4730
2022-12-29T04:07:18.157Z,35.4620
2022-12-29T04:08:20.525Z,35.4860
2022-12-29T04:09:23.003Z,35.4920
2022-12-29T04:10:23.342Z,35.4840
2022-12-29T04:11:31.282Z,35.4220
2022-12-29T04:12:28.404Z,35.4640
2022-12-29T04:13:28.544Z,35.4430
2022-12-29T04:14:30.962Z,35.4750
2022-12-29T04:15:33.473Z,35.4800
2022-12-29T04:16:33.707Z,35.4900
2022-12-29T04:17:36.238Z,35.4900
2022-12-29T04:18:38.677Z,35.5570
2022-12-29T04:19:39.009Z,35.5240
2022-12-29T04:20:41.493Z,35.5190
2022-12-29T04:21:43.952Z,35.5070
2022-12-29T04:22:44.294Z,35.5130
2022-12-29T04:23:46.775Z,35.5070
2022-12-29T04:24:49.221Z,35.4900
2022-12-29T04:25:49.555Z,35.4720
2022-12-29T04:26:52.029Z,35.4720
2022-12-29T04:27:54.479Z,35.4600
2022-12-29T04:28:54.717Z,35.4750
2022-12-29T04:29:57.191Z,35.4720
2022-12-29T04:30:59.585Z,35.4850
2022-12-29T04:31:59.856Z,35.4600
2022-12-29T04:33:02.347Z,35.4490
2022-12-29T04:34:04.609Z,35.4550
2022-12-29T04:35:07.024Z,35.4600
2022-12-29T04:36:07.563Z,35.4380
2022-12-29T04:37:09.712Z,35.4550
2022-12-29T04:38:12.108Z,35.4870
2022-12-29T04:39:14.387Z,35.5100
2022-12-29T04:40:16.797Z,35.5170
2022-12-29T04:41:16.967Z,35.4870
2022-12-29T04:42:19.298Z,35.5040
2022-12-29T04:43:21.752Z,35.5020
2022-12-29T04:44:23.970Z,35.4700
2022-12-29T04:45:26.379Z,35.4700
2022-12-29T04:46:26.627Z,35.4550
2022-12-29T04:47:28.916Z,35.4380
2022-12-29T04:48:31.500Z,35.4380
2022-12-29T04:49:33.726Z,35.4380
2022-12-29T04:50:34.045Z,35.4260
2022-12-29T04:51:36.464Z,35.4530
2022-12-29T04:52:38.932Z,35.4700
2022-12-29T04:53:39.370Z,35.4530
2022-12-29T04:54:41.632Z,35.4530
2022-12-29T04:55:44.031Z,35.4850
2022-12-29T04:56:46.501Z,35.4530
2022-12-29T04:57:46.814Z,35.4590
2022-12-29T04:58:49.456Z,35.4700
2022-12-29T04:59:51.749Z,35.4500
2022-12-29T05:00:54.216Z,35.4590
2022-12-29T05:01:54.615Z,35.4260
2022-12-29T05:02:57.178Z,35.4290
2022-12-29T05:03:57.341Z,35.4020
2022-12-29T05:04:59.706Z,35.4290
2022-12-29T05:06:02.172Z,35.4020
2022-12-29T05:07:02.535Z,35.4170
2022-12-29T05:08:04.982Z,35.4010
2022-12-29T05:09:07.656Z,35.4230
2022-12-29T05:10:07.812Z,35.4210
2022-12-29T05:11:10.262Z,35.4330
2022-12-29T05:12:12.741Z,35.4230
2022-12-29T05:13:13.067Z,35.4060
2022-12-29T05:14:15.750Z,35.4330
2022-12-29T05:15:18.055Z,35.4100
2022-12-29T05:16:18.559Z,35.4160
2022-12-29T05:17:20.919Z,35.3950
2022-12-29T05:18:23.400Z,35.3950
2022-12-29T05:19:23.935Z,35.4280
2022-12-29T05:20:26.236Z,35.4340
2022-12-29T05:21:28.769Z,35.4010
2022-12-29T05:22:29.075Z,35.3930
2022-12-29T05:23:31.579Z,35.3950
2022-12-29T05:24:34.140Z,35.3610
2022-12-29T05:25:34.435Z,35.3510
2022-12-29T05:26:36.939Z,35.3370
2022-12-29T05:27:39.477Z,35.3690
2022-12-29T05:28:39.830Z,35.3750
2022-12-29T05:29:42.328Z,35.4050
2022-12-29T05:30:44.815Z,35.3860
2022-12-29T05:31:45.259Z,35.3690
2022-12-29T05:32:47.575Z,35.3800
2022-12-29T05:33:50.062Z,35.3860
2022-12-29T05:34:50.425Z,35.3830
2022-12-29T05:35:52.889Z,35.3880
2022-12-29T05:36:55.358Z,35.3850
2022-12-29T05:37:55.715Z,35.4020
2022-12-29T05:38:58.123Z,35.4050
2022-12-29T05:40:00.547Z,35.3850
2022-12-29T05:41:00.744Z,35.3830
2022-12-29T05:42:03.148Z,35.3460
2022-12-29T05:43:05.498Z,35.3110
2022-12-29T05:44:07.925Z,35.3410
2022-12-29T05:45:10.343Z,35.3180
2022-12-29T05:46:12.703Z,35.3410
2022-12-29T05:47:15.162Z,35.3470
2022-12-29T05:48:17.488Z,35.3300
2022-12-29T05:49:17.775Z,35.3580
2022-12-29T05:50:20.294Z,35.3570
2022-12-29T05:51:22.779Z,35.3740
2022-12-29T05:52:23.182Z,35.3470
2022-12-29T05:53:25.649Z,35.3450
2022-12-29T05:54:28.151Z,35.3340
2022-12-29T05:55:28.530Z,35.3400
2022-12-29T05:56:30.981Z,35.3340
2022-12-29T05:57:33.462Z,35.3210
2022-12-29T05:58:33.840Z,35.3210
2022-12-29T05:59:36.320Z,35.3160
2022-12-29T06:00:36.708Z,35.3370
2022-12-29T06:01:39.360Z,35.3420
2022-12-29T06:02:41.879Z,35.3480
2022-12-29T06:03:48.004Z,35.3200
2022-12-29T06:04:44.538Z,35.3310
2022-12-29T06:05:47.006Z,35.3140
2022-12-29T06:06:47.321Z,35.2870
2022-12-29T06:07:49.824Z,35.2970
2022-12-29T06:08:52.332Z,35.3020
2022-12-29T06:09:52.673Z,35.3110
2022-12-29T06:10:55.223Z,35.2930
2022-12-29T06:11:57.681Z,35.2760
2022-12-29T06:12:58.030Z,35.2730
2022-12-29T06:14:00.497Z,35.2500
2022-12-29T06:15:02.985Z,35.2780
2022-12-29T06:16:03.495Z,35.2820
2022-12-29T06:17:05.766Z,35.2780
2022-12-29T06:18:08.228Z,35.2710
2022-12-29T06:19:08.501Z,35.2500
2022-12-29T06:20:10.880Z,35.2390
2022-12-29T06:21:13.320Z,35.2760
2022-12-29T06:22:15.678Z,35.2650
2022-12-29T06:23:15.960Z,35.2540
2022-12-29T06:24:18.385Z,35.2690
2022-12-29T06:25:20.839Z,35.2760
2022-12-29T06:26:23.299Z,35.2600
2022-12-29T06:27:25.657Z,35.2270
2022-12-29T06:28:28.028Z,35.2220
2022-12-29T06:29:30.435Z,35.2240
2022-12-29T06:30:30.647Z,35.2460
2022-12-29T06:31:33.530Z,35.2460
2022-12-29T06:32:35.489Z,35.2180
2022-12-29T06:33:37.943Z,35.2300
2022-12-29T06:34:38.183Z,35.2270
2022-12-29T06:35:40.615Z,35.2180
2022-12-29T06:36:43.072Z,35.2160
2022-12-29T06:37:43.325Z,35.2460
2022-12-29T06:38:45.780Z,35.2630
2022-12-29T06:39:48.221Z,35.2460
2022-12-29T06:40:50.651Z,35.2460
2022-12-29T06:41:50.980Z,35.2630
2022-12-29T06:42:53.352Z,35.2240
2022-12-29T06:43:55.785Z,35.2220
2022-12-29T06:44:56.069Z,35.1580
2022-12-29T06:45:58.539Z,35.2070
2022-12-29T06:47:00.948Z,35.2470
2022-12-29T06:48:03.239Z,35.2560
2022-12-29T06:49:03.555Z,35.2390
2022-12-29T06:50:05.961Z,35.2450
2022-12-29T06:51:08.409Z,35.2450
2022-12-29T06:52:13.136Z,35.2070
2022-12-29T06:53:11.130Z,35.2460
2022-12-29T06:54:13.550Z,35.2460
2022-12-29T06:55:15.954Z,35.2520
2022-12-29T06:56:18.379Z,35.2560
2022-12-29T06:57:18.697Z,35.2450
2022-12-29T06:58:21.099Z,35.2670
2022-12-29T06:59:22.340Z,35.3570
2022-12-29T07:00:23.280Z,35.4790
2022-12-29T07:01:24.045Z,35.5370
2022-12-29T07:02:26.784Z,35.4610
2022-12-29T07:03:28.899Z,35.3670
2022-12-29T07:04:29.141Z,35.2940
2022-12-29T07:05:31.527Z,35.2610
2022-12-29T07:06:33.982Z,35.2290
2022-12-29T07:07:34.324Z,35.2290
2022-12-29T07:08:36.738Z,35.2240
2022-12-29T07:09:39.221Z,35.2610
2022-12-29T07:10:41.647Z,35.2500
2022-12-29T07:11:41.960Z,35.2830
2022-12-29T07:12:44.419Z,35.2830
2022-12-29T07:13:46.872Z,35.2830
2022-12-29T07:14:47.171Z,35.2790
2022-12-29T07:15:49.596Z,35.2730
2022-12-29T07:16:52.040Z,35.2880
2022-12-29T07:17:54.452Z,35.3010
2022-12-29T07:18:54.750Z,35.2760
2022-12-29T07:19:57.297Z,35.2630
2022-12-29T07:20:59.709Z,35.2760
2022-12-29T07:22:00.028Z,35.2580
2022-12-29T07:23:02.504Z,35.2490
2022-12-29T07:24:04.975Z,35.2630
2022-12-29T07:25:05.296Z,35.2600
2022-12-29T07:26:07.782Z,35.2240
2022-12-29T07:27:10.229Z,35.2370
2022-12-29T07:28:12.714Z,35.2760
2022-12-29T07:29:15.162Z,35.3310
2022-12-29T07:30:15.521Z,35.3080
2022-12-29T07:31:18.166Z,35.3370
2022-12-29T07:32:20.703Z,35.3200
2022-12-29T07:33:20.920Z,35.3430
2022-12-29T07:34:23.371Z,35.3460
2022-12-29T07:35:25.925Z,35.3480
2022-12-29T07:36:32.345Z,35.3480
2022-12-29T07:37:28.741Z,35.3460
2022-12-29T07:38:31.386Z,35.3310
2022-12-29T07:39:31.574Z,35.3480
2022-12-29T07:40:34.096Z,35.3590
2022-12-29T07:41:36.584Z,35.3480
2022-12-29T07:42:36.870Z,35.3480
2022-12-29T07:43:39.390Z,35.3270
2022-12-29T07:44:41.819Z,35.3270
2022-12-29T07:45:42.128Z,35.3330
2022-12-29T07:46:54.112Z,35.3380
2022-12-29T07:47:47.044Z,35.3640
2022-12-29T07:48:47.428Z,35.3270
2022-12-29T07:49:49.905Z,35.3440
2022-12-29T07:50:52.453Z,35.3480
2022-12-29T07:51:52.786Z,35.3440
2022-12-29T07:52:55.300Z,35.3540
2022-12-29T07:53:57.760Z,35.3220
2022-12-29T07:54:58.009Z,35.3270
2022-12-29T07:56:00.452Z,35.3370
2022-12-29T07:57:02.890Z,35.3430
2022-12-29T07:58:03.135Z,35.3570
2022-12-29T07:59:05.569Z,35.3220
2022-12-29T08:00:07.953Z,35.3250
2022-12-29T08:01:10.463Z,35.3370
2022-12-29T08:02:10.744Z,35.3920
2022-12-29T08:03:13.094Z,35.4220
2022-12-29T08:04:15.617Z,35.4270
2022-12-29T08:05:17.935Z,35.4220
2022-12-29T08:06:18.162Z,35.4090
2022-12-29T08:07:18.444Z,35.3750
2022-12-29T08:08:20.896Z,35.3950
2022-12-29T08:09:24.500Z,35.3890
2022-12-29T08:10:25.902Z,35.4270
2022-12-29T08:11:28.270Z,35.3710
2022-12-29T08:12:28.619Z,35.3800
2022-12-29T08:13:31.092Z,35.3910
2022-12-29T08:14:33.602Z,35.3250
2022-12-29T08:15:33.969Z,35.3310
2022-12-29T08:16:36.478Z,35.3460
2022-12-29T08:17:38.868Z,35.3800
2022-12-29T08:18:39.162Z,35.3680
2022-12-29T08:19:41.635Z,35.3460
2022-12-29T08:20:44.059Z,35.3970
2022-12-29T08:21:44.407Z,35.3580
2022-12-29T08:22:46.846Z,35.3410
2022-12-29T08:23:49.328Z,35.3420
2022-12-29T08:24:49.666Z,35.3520
2022-12-29T08:25:52.054Z,35.3860
2022-12-29T08:26:54.528Z,35.3660
2022-12-29T08:27:56.965Z,35.3480
2022-12-29T08:28:57.248Z,35.3610
2022-12-29T08:29:59.687Z,35.4050
2022-12-29T08:31:02.152Z,35.4140
2022-12-29T08:32:04.529Z,35.3830
2022-12-29T08:33:04.790Z,35.3830
2022-12-29T08:34:07.279Z,35.3890
2022-12-29T08:35:09.802Z,35.3790
2022-12-29T08:36:10.081Z,35.3580
2022-12-29T08:37:12.599Z,35.3570
2022-12-29T08:38:15.049Z,35.3850
2022-12-29T08:39:15.371Z,35.3910
2022-12-29T08:40:17.896Z,35.4290
2022-12-29T08:41:20.343Z,35.4350
2022-12-29T08:42:20.680Z,35.4090
2022-12-29T08:43:23.154Z,35.4380
2022-12-29T08:44:25.639Z,35.4150
2022-12-29T08:45:26.026Z,35.4110
2022-12-29T08:46:28.528Z,35.4000
2022-12-29T08:47:30.897Z,35.4320
2022-12-29T08:48:31.245Z,35.4430
2022-12-29T08:49:33.730Z,35.4810
2022-12-29T08:50:36.227Z,35.4520
2022-12-29T08:51:38.598Z,35.4450
2022-12-29T08:52:41.123Z,35.4450
2022-12-29T08:53:41.468Z,35.4520
2022-12-29T08:54:43.877Z,35.4630
2022-12-29T08:55:46.356Z,35.4610
2022-12-29T08:56:48.805Z,35.4630
2022-12-29T08:57:49.000Z,35.4440
2022-12-29T08:58:51.457Z,35.4360
2022-12-29T08:59:53.925Z,35.4380
2022-12-29T09:00:54.276Z,35.4590
2022-12-29T09:01:56.809Z,35.4290
2022-12-29T09:02:59.378Z,35.4530
2022-12-29T09:04:14.728Z,35.4420
2022-12-29T09:05:01.933Z,35.4590
2022-12-29T09:06:04.301Z,35.4320
2022-12-29T09:07:06.709Z,35.4360
2022-12-29T09:08:07.033Z,35.3830
2022-12-29T09:09:09.509Z,35.3450
2022-12-29T09:10:11.908Z,35.3700
2022-12-29T09:11:12.249Z,35.3530
2022-12-29T09:12:14.641Z,35.3220
2022-12-29T09:13:17.082Z,35.2840
2022-12-29T09:14:17.363Z,35.2810
2022-12-29T09:15:19.810Z,35.2340
2022-12-29T09:16:22.384Z,35.2630
2022-12-29T09:17:24.703Z,35.2180
2022-12-29T09:18:24.974Z,35.2010
2022-12-29T09:19:27.400Z,35.1740
2022-12-29T09:20:29.831Z,35.1530
2022-12-29T09:21:32.328Z,35.1470
2022-12-29T09:22:32.435Z,35.1630
2022-12-29T09:23:34.839Z,35.1070
2022-12-29T09:24:37.203Z,35.0760
2022-12-29T09:25:39.576Z,35.0960
2022-12-29T09:26:46.698Z,35.0730
2022-12-29T09:27:42.191Z,35.0750
2022-12-29T09:28:44.603Z,35.0230
2022-12-29T09:29:47.038Z,35.0250
2022-12-29T09:30:47.298Z,34.9730
2022-12-29T09:31:49.844Z,34.9780
2022-12-29T09:32:55.268Z,34.9560
2022-12-29T09:33:54.561Z,34.9730
2022-12-29T09:34:56.976Z,35.0000
2022-12-29T09:35:59.424Z,35.0000
2022-12-29T09:36:59.625Z,35.0150
2022-12-29T09:38:01.999Z,34.9940
2022-12-29T09:39:04.343Z,35.0100
2022-12-29T09:40:06.699Z,35.0150
2022-12-29T09:41:09.092Z,35.0490
2022-12-29T09:42:09.467Z,35.0380
2022-12-29T09:43:11.739Z,35.0530
2022-12-29T09:44:14.152Z,35.0550
2022-12-29T09:45:16.479Z,35.0440
2022-12-29T09:46:16.707Z,35.0380
2022-12-29T09:47:18.951Z,35.0230
2022-12-29T09:48:21.239Z,35.0270
2022-12-29T09:49:23.647Z,35.0730
2022-12-29T09:50:26.008Z,35.0270
2022-12-29T09:51:26.190Z,35.0000
2022-12-29T09:52:28.716Z,35.0110
2022-12-29T09:53:30.923Z,35.0170
2022-12-29T09:54:33.321Z,35.0000
2022-12-29T09:55:35.610Z,34.9960
2022-12-29T09:56:35.844Z,34.9940
2022-12-29T09:57:38.287Z,35.0000
2022-12-29T09:58:40.635Z,34.9680
2022-12-29T09:59:43.001Z,35.0060
2022-12-29T10:00:49.859Z,34.9780
2022-12-29T10:01:45.811Z,35.0340
2022-12-29T10:02:48.258Z,34.9780
2022-12-29T10:03:50.335Z,34.9940
2022-12-29T10:04:52.719Z,34.9450
2022-12-29T10:05:52.907Z,34.9510
2022-12-29T10:07:55.532Z,35.0110
2022-12-29T10:08:57.884Z,34.9990
2022-12-29T10:10:00.256Z,34.9900
2022-12-29T10:11:02.624Z,34.9720
2022-12-29T10:12:04.981Z,34.9790
2022-12-29T10:13:05.335Z,34.9560
2022-12-29T10:14:12.227Z,34.9500
2022-12-29T10:15:09.929Z,34.9510
2022-12-29T10:16:12.377Z,34.9320
2022-12-29T10:17:14.699Z,34.9610
2022-12-29T10:18:14.933Z,34.9260
2022-12-29T10:19:17.290Z,34.9030
2022-12-29T10:20:19.683Z,34.8550
2022-12-29T10:21:22.068Z,34.8070
2022-12-29T10:22:22.275Z,34.8310
2022-12-29T10:23:24.707Z,34.8320
2022-12-29T10:24:27.026Z,34.8390
2022-12-29T10:25:32.902Z,34.7990
2022-12-29T10:26:29.617Z,34.8130
2022-12-29T10:27:31.972Z,34.8270
2022-12-29T10:28:34.444Z,34.8120
2022-12-29T10:29:36.692Z,34.8110
2022-12-29T10:30:39.055Z,34.7560
2022-12-29T10:31:39.301Z,34.7260
2022-12-29T10:32:41.659Z,34.7100
2022-12-29T10:33:44.067Z,34.7200
2022-12-29T10:34:46.417Z,34.7190
2022-12-29T10:35:48.780Z,34.6650
2022-12-29T10:36:49.010Z,34.6320
2022-12-29T10:37:51.357Z,34.6270
2022-12-29T10:38:53.783Z,34.6920
2022-12-29T10:39:56.101Z,34.7180
2022-12-29T10:40:56.341Z,34.7470
2022-12-29T10:41:58.727Z,34.7700
2022-12-29T10:43:01.124Z,34.7870
2022-12-29T10:44:03.551Z,34.7870
2022-12-29T10:45:05.904Z,34.8160
2022-12-29T10:46:06.181Z,34.8100
2022-12-29T10:47:08.480Z,34.8100
2022-12-29T10:48:10.882Z,34.8330
2022-12-29T10:49:18.033Z,34.8750
2022-12-29T10:50:15.616Z,34.8970
2022-12-29T10:51:17.989Z,34.8680
2022-12-29T10:52:20.389Z,34.8700
2022-12-29T10:53:20.648Z,34.8810
2022-12-29T10:54:23.085Z,34.8600
2022-12-29T10:55:25.465Z,34.8420
2022-12-29T10:56:27.864Z,34.8260
2022-12-29T10:57:28.111Z,34.8600
2022-12-29T10:58:30.554Z,34.8530
2022-12-29T10:59:32.995Z,34.8490
2022-12-29T11:00:35.495Z,34.8490
2022-12-29T11:01:35.759Z,34.8670
2022-12-29T11:02:38.057Z,34.9290
2022-12-29T11:03:40.323Z,34.9010
2022-12-29T11:04:42.856Z,34.9180
2022-12-29T11:05:42.979Z,34.8920
2022-12-29T11:06:45.384Z,34.8750
2022-12-29T11:07:47.744Z,34.9030
2022-12-29T11:08:50.129Z,34.9160
2022-12-29T11:09:50.390Z,34.9230
2022-12-29T11:10:52.679Z,34.9240
2022-12-29T11:11:55.050Z,34.9450
2022-12-29T11:12:57.386Z,34.9800
2022-12-29T11:13:59.731Z,34.9500
2022-12-29T11:14:59.962Z,34.9660
2022-12-29T11:16:02.338Z,34.9710
2022-12-29T11:17:04.652Z,34.9620
2022-12-29T11:18:07.016Z,34.9620
2022-12-29T11:19:09.413Z,34.9330
2022-12-29T11:20:09.711Z,34.9500
2022-12-29T11:21:12.087Z,34.9280
2022-12-29T11:22:14.528Z,34.9210
2022-12-29T11:23:16.912Z,34.9230
2022-12-29T11:24:17.173Z,34.9100
2022-12-29T11:25:19.603Z,34.9000
2022-12-29T11:26:22.012Z,34.9160
2022-12-29T11:27:22.284Z,34.9060
2022-12-29T11:28:24.610Z,34.8710
2022-12-29T11:29:27.009Z,34.8710
2022-12-29T11:30:29.444Z,34.8740
2022-12-29T11:31:29.764Z,34.8920
2022-12-29T11:32:32.060Z,34.9020
2022-12-29T11:33:34.449Z,34.8960
2022-12-29T11:34:36.852Z,34.8570
2022-12-29T11:35:37.065Z,34.8680
2022-12-29T11:36:39.427Z,34.9100
2022-12-29T11:37:41.882Z,34.9420
2022-12-29T11:38:44.220Z,34.9330
2022-12-29T11:39:44.465Z,34.9440
2022-12-29T11:40:46.961Z,34.9270
2022-12-29T11:41:49.232Z,34.9240
2022-12-29T11:42:51.675Z,34.9420
2022-12-29T11:43:51.909Z,34.9590
2022-12-29T11:44:54.341Z,34.9240
2022-12-29T11:45:54.837Z,34.9540
2022-12-29T11:46:57.066Z,34.9820
2022-12-29T11:47:57.340Z,34.9690
2022-12-29T11:48:59.813Z,34.9800
2022-12-29T11:50:02.273Z,34.9860
2022-12-29T11:51:02.691Z,35.0040
2022-12-29T11:52:04.967Z,35.0030
2022-12-29T11:53:07.417Z,34.9800
2022-12-29T11:54:09.851Z,35.0180
2022-12-29T11:55:10.132Z,35.0190
2022-12-29T11:56:12.698Z,35.0970
2022-12-29T11:57:15.027Z,35.0630
2022-12-29T11:58:15.334Z,35.1020
2022-12-29T11:59:17.782Z,35.1150
2022-12-29T12:00:20.204Z,35.0870
2022-12-29T12:01:22.711Z,35.0580
2022-12-29T12:02:23.093Z,35.0700
2022-12-29T12:03:25.496Z,35.1100
2022-12-29T12:04:27.829Z,35.0910
2022-12-29T12:05:28.169Z,35.0690
2022-12-29T12:06:30.504Z,35.0870
2022-12-29T12:07:32.938Z,35.1010
2022-12-29T12:08:33.237Z,35.0720
2022-12-29T12:09:35.637Z,35.0830
2022-12-29T12:10:38.035Z,35.0690
2022-12-29T12:11:40.480Z,35.0890
2022-12-29T12:12:40.671Z,35.1220
2022-12-29T12:13:43.157Z,35.1330
2022-12-29T12:14:45.531Z,35.1270
2022-12-29T12:15:52.685Z,35.1120
2022-12-29T12:16:48.287Z,35.1550
2022-12-29T12:17:50.690Z,35.1690
2022-12-29T12:18:53.118Z,35.1610
2022-12-29T12:19:53.404Z,35.1860
2022-12-29T12:20:55.813Z,35.1300
2022-12-29T12:21:58.266Z,35.1190
2022-12-29T12:23:01.599Z,35.1260
2022-12-29T12:24:00.924Z,35.1380
2022-12-29T12:25:03.283Z,35.1420
2022-12-29T12:26:05.660Z,35.1640
2022-12-29T12:27:08.046Z,35.1420
2022-12-29T12:28:08.222Z,35.1550